createdAt,value
2022-12-05T00:01:22.281Z,100369.16
2022-12-05T00:03:50.763Z,100369.56
2022-12-05T00:06:18.831Z,100371.84
2022-12-05T00:08:46.232Z,100377.59
2022-12-05T00:11:22.065Z,100372.06
2022-12-05T00:13:51.890Z,100385.50
2022-12-05T00:16:20.763Z,100375.91
2022-12-05T00:18:47.563Z,100377.34
2022-12-05T00:21:23.106Z,100386.41
2022-12-05T00:23:51.052Z,100385.38
2022-12-05T00:26:17.817Z,100380.22
2022-12-05T00:28:44.635Z,100383.50
2022-12-05T00:31:14.882Z,100390.88
2022-12-05T00:33:41.780Z,100392.47
2022-12-05T00:36:32.379Z,100386.56
2022-12-05T00:39:01.396Z,100385.97
2022-12-05T00:41:29.775Z,100389.06
2022-12-05T00:43:59.269Z,100383.91
2022-12-05T00:46:28.313Z,100385.78
2022-12-05T00:48:56.379Z,100389.25
2022-12-05T00:51:36.038Z,100391.94
2022-12-05T00:54:05.631Z,100395.03
2022-12-05T00:56:33.353Z,100401.16
2022-12-05T00:59:01.471Z,100397.69
2022-12-05T01:01:35.020Z,100391.53
2022-12-05T01:04:05.816Z,100398.69
2022-12-05T01:06:34.035Z,100404.63
2022-12-05T01:09:01.343Z,100401.78
2022-12-05T01:11:28.376Z,100404.84
2022-12-05T01:13:55.799Z,100401.97
2022-12-05T01:16:32.568Z,100407.72
2022-12-05T01:19:02.781Z,100411.41
2022-12-05T01:21:29.593Z,100407.09
2022-12-05T01:23:56.874Z,100407.72
2022-12-05T01:26:24.413Z,100412.66
2022-12-05T01:28:51.964Z,100410.16
2022-12-05T01:31:23.350Z,100416.69
2022-12-05T01:33:51.039Z,100406.25
2022-12-05T01:36:18.174Z,100405.88
2022-12-05T01:38:45.175Z,100409.97
2022-12-05T01:41:18.984Z,100407.31
2022-12-05T01:44:02.785Z,100413.47
2022-12-05T01:46:32.821Z,100418.34
2022-12-05T01:49:04.205Z,100415.91
2022-12-05T01:51:33.517Z,100416.72
2022-12-05T01:54:01.418Z,100424.47
2022-12-05T01:56:28.374Z,100433.88
2022-12-05T01:58:56.132Z,100423.25
2022-12-05T02:01:22.859Z,100423.69
2022-12-05T02:03:52.789Z,100427.56
2022-12-05T02:06:20.313Z,100426.75
2022-12-05T02:08:47.220Z,100436.59
2022-12-05T02:11:14.187Z,100442.28
2022-12-05T02:13:55.006Z,100442.94
2022-12-05T02:16:27.417Z,100451.09
2022-12-05T02:19:35.582Z,100439.66
2022-12-05T02:22:43.970Z,100437.78
2022-12-05T02:25:30.184Z,100437.59
2022-12-05T02:28:15.294Z,100443.28
2022-12-05T02:30:50.529Z,100446.13
2022-12-05T02:33:27.831Z,100435.06
2022-12-05T02:36:07.502Z,100438.72
2022-12-05T02:38:52.816Z,100443.06
2022-12-05T02:41:23.173Z,100450.38
2022-12-05T02:43:54.570Z,100450.22
2022-12-05T02:46:23.617Z,100456.63
2022-12-05T02:48:54.243Z,100465.38
2022-12-05T02:51:24.120Z,100465.38
2022-12-05T02:53:51.989Z,100464.34
2022-12-05T02:56:19.492Z,100463.88
2022-12-05T02:58:54.487Z,100480.19
2022-12-05T03:01:24.958Z,100481.69
2022-12-05T03:03:52.467Z,100479.66
2022-12-05T03:06:33.156Z,100481.28
2022-12-05T03:09:12.338Z,100488.88
2022-12-05T03:11:47.213Z,100492.50
2022-12-05T03:14:22.719Z,100500.56
2022-12-05T03:16:52.515Z,100496.91
2022-12-05T03:19:32.665Z,100497.72
2022-12-05T03:22:03.082Z,100497.41
2022-12-05T03:24:33.229Z,100492.19
2022-12-05T03:27:23.962Z,100490.16
2022-12-05T03:30:14.524Z,100497.03
2022-12-05T03:33:05.745Z,100497.88
2022-12-05T03:35:53.105Z,100501.28
2022-12-05T03:38:30.621Z,100509.72
2022-12-05T03:41:17.538Z,100497.16
2022-12-05T03:44:01.097Z,100501.09
2022-12-05T03:46:34.428Z,100509.31
2022-12-05T03:49:07.886Z,100511.16
2022-12-05T03:51:39.964Z,100509.34
2022-12-05T03:54:26.577Z,100524.75
2022-12-05T03:57:15.094Z,100517.06
2022-12-05T03:59:50.817Z,100512.03
2022-12-05T04:02:28.458Z,100512.41
2022-12-05T04:05:02.740Z,100518.13
2022-12-05T04:07:32.632Z,100520.22
2022-12-05T04:10:08.660Z,100519.53
2022-12-05T04:12:36.861Z,100525.75
2022-12-05T04:15:14.670Z,100523.75
2022-12-05T04:17:58.594Z,100532.13
2022-12-05T04:20:53.675Z,100519.41
2022-12-05T04:23:20.783Z,100508.91
2022-12-05T04:26:28.458Z,100510.91
2022-12-05T04:29:07.311Z,100514.34
2022-12-05T04:31:48.313Z,100525.53
2022-12-05T04:34:15.887Z,100524.28
2022-12-05T04:36:47.376Z,100525.91
2022-12-05T04:39:29.133Z,100516.25
2022-12-05T04:42:00.579Z,100506.38
2022-12-05T04:44:33.378Z,100509.44
2022-12-05T04:47:03.666Z,100523.25
2022-12-05T04:49:32.948Z,100528.34
2022-12-05T04:52:04.114Z,100527.31
2022-12-05T04:55:09.219Z,100531.59
2022-12-05T04:57:54.651Z,100523.81
2022-12-05T05:00:21.337Z,100516.19
2022-12-05T05:02:54.684Z,100521.06
2022-12-05T05:05:23.227Z,100509.31
2022-12-05T05:07:53.502Z,100508.78
2022-12-05T05:10:26.858Z,100506.47
2022-12-05T05:12:53.737Z,100512.56
2022-12-05T05:15:20.373Z,100519.28
2022-12-05T05:17:46.990Z,100520.19
2022-12-05T05:20:28.072Z,100520.16
2022-12-05T05:22:56.795Z,100521.06
2022-12-05T05:25:24.634Z,100519.44
2022-12-05T05:27:53.320Z,100526.44
2022-12-05T05:30:22.564Z,100528.13
2022-12-05T05:32:49.519Z,100527.81
2022-12-05T05:35:17.088Z,100520.38
2022-12-05T05:37:44.074Z,100529.84
2022-12-05T05:40:13.025Z,100533.59
2022-12-05T05:42:47.702Z,100542.72
2022-12-05T05:45:15.541Z,100544.66
2022-12-05T05:47:45.879Z,100537.63
2022-12-05T05:50:17.934Z,100535.13
2022-12-05T05:52:48.436Z,100541.78
2022-12-05T05:55:16.828Z,100546.56
2022-12-05T05:57:43.876Z,100550.81
2022-12-05T06:00:11.462Z,100556.81
2022-12-05T06:02:38.443Z,100558.63
2022-12-05T06:05:06.051Z,100558.00
2022-12-05T06:07:33.335Z,100560.81
2022-12-05T06:10:00.361Z,100558.50
2022-12-05T06:12:27.372Z,100564.84
2022-12-05T06:14:54.252Z,100567.25
2022-12-05T06:17:21.053Z,100574.81
2022-12-05T06:19:47.693Z,100558.00
2022-12-05T06:22:14.440Z,100552.63
2022-12-05T06:24:41.360Z,100563.97
2022-12-05T06:27:10.848Z,100573.13
2022-12-05T06:29:37.829Z,100576.50
2022-12-05T06:32:04.796Z,100571.53
2022-12-05T06:34:32.749Z,100575.69
2022-12-05T06:37:00.076Z,100577.09
2022-12-05T06:39:27.257Z,100581.97
2022-12-05T06:41:54.052Z,100586.09
2022-12-05T06:44:21.889Z,100578.16
2022-12-05T06:46:49.072Z,100594.91
2022-12-05T06:49:15.736Z,100597.44
2022-12-05T06:51:42.408Z,100592.31
2022-12-05T06:54:11.181Z,100601.66
2022-12-05T06:56:37.882Z,100607.84
2022-12-05T06:59:04.599Z,100612.09
2022-12-05T07:01:43.681Z,100612.03
2022-12-05T07:04:16.995Z,100614.94
2022-12-05T07:06:50.171Z,100615.50
2022-12-05T07:09:20.588Z,100621.28
2022-12-05T07:11:49.074Z,100620.47
2022-12-05T07:14:38.889Z,100622.47
2022-12-05T07:17:03.615Z,100627.97
2022-12-05T07:19:30.447Z,100633.19
2022-12-05T07:21:57.101Z,100631.75
2022-12-05T07:24:23.760Z,100635.00
2022-12-05T07:26:50.500Z,100636.66
2022-12-05T07:29:17.255Z,100639.78
2022-12-05T07:31:44.755Z,100632.31
2022-12-05T07:34:11.759Z,100627.56
2022-12-05T07:36:38.522Z,100633.38
2022-12-05T07:39:05.386Z,100637.06
2022-12-05T07:41:33.234Z,100640.13
2022-12-05T07:44:05.709Z,100627.56
2022-12-05T07:46:32.552Z,100638.28
2022-12-05T07:48:59.421Z,100642.75
2022-12-05T07:51:26.057Z,100647.13
2022-12-05T07:53:52.821Z,100645.94
2022-12-05T07:56:19.878Z,100643.44
2022-12-05T07:58:49.149Z,100645.81
2022-12-05T08:01:18.908Z,100640.75
2022-12-05T08:03:46.832Z,100642.81
2022-12-05T08:06:22.561Z,100653.09
2022-12-05T08:08:50.072Z,100666.03
2022-12-05T08:11:25.768Z,100660.00
2022-12-05T08:13:53.538Z,100667.06
2022-12-05T08:16:23.281Z,100659.53
2022-12-05T08:19:02.242Z,100664.72
2022-12-05T08:21:29.206Z,100678.66
2022-12-05T08:23:56.386Z,100678.03
2022-12-05T08:26:28.270Z,100676.00
2022-12-05T08:29:02.408Z,100680.50
2022-12-05T08:31:31.068Z,100677.75
2022-12-05T08:33:59.857Z,100682.75
2022-12-05T08:36:31.322Z,100689.25
2022-12-05T08:39:00.185Z,100684.97
2022-12-05T08:41:29.077Z,100685.19
2022-12-05T08:43:57.115Z,100684.34
2022-12-05T08:46:24.005Z,100687.47
2022-12-05T08:48:53.115Z,100699.19
2022-12-05T08:51:19.797Z,100695.88
2022-12-05T08:53:46.553Z,100694.63
2022-12-05T08:56:13.768Z,100698.25
2022-12-05T08:58:41.162Z,100695.78
2022-12-05T09:01:16.282Z,100708.19
2022-12-05T09:03:47.791Z,100707.97
2022-12-05T09:06:21.144Z,100718.00
2022-12-05T09:08:48.880Z,100713.44
2022-12-05T09:11:18.356Z,100728.50
2022-12-05T09:13:46.293Z,100726.06
2022-12-05T09:16:20.753Z,100724.56
2022-12-05T09:18:48.819Z,100725.63
2022-12-05T09:21:27.169Z,100733.84
2022-12-05T09:23:54.441Z,100742.81
2022-12-05T09:26:24.587Z,100742.72
2022-12-05T09:28:52.383Z,100733.25
2022-12-05T09:31:21.647Z,100745.28
2022-12-05T09:33:49.844Z,100741.28
2022-12-05T09:36:23.017Z,100745.38
2022-12-05T09:38:50.243Z,100749.56
2022-12-05T09:41:54.362Z,100749.91
2022-12-05T09:44:43.910Z,100750.38
2022-12-05T09:47:19.785Z,100743.06
2022-12-05T09:50:04.823Z,100742.94
2022-12-05T09:52:36.458Z,100743.34
2022-12-05T09:55:10.801Z,100740.16
2022-12-05T09:57:44.389Z,100736.53
2022-12-05T10:00:11.847Z,100741.84
2022-12-05T10:02:52.096Z,100740.94
2022-12-05T10:05:27.689Z,100739.28
2022-12-05T10:08:32.855Z,100734.88
2022-12-05T10:11:14.563Z,100736.00
2022-12-05T10:13:55.787Z,100734.75
2022-12-05T10:16:38.468Z,100728.81
2022-12-05T10:19:16.060Z,100734.56
2022-12-05T10:22:01.248Z,100738.78
2022-12-05T10:24:41.294Z,100740.34
2022-12-05T10:27:16.331Z,100726.72
2022-12-05T10:29:52.025Z,100738.13
2022-12-05T10:32:33.136Z,100737.78
2022-12-05T10:35:14.149Z,100741.00
2022-12-05T10:37:45.464Z,100737.00
2022-12-05T10:40:13.609Z,100747.63
2022-12-05T10:42:40.388Z,100741.03
2022-12-05T10:45:14.352Z,100747.34
2022-12-05T10:47:41.024Z,100741.13
2022-12-05T10:50:30.057Z,100741.53
2022-12-05T10:52:59.223Z,100745.66
2022-12-05T10:55:34.930Z,100749.09
2022-12-05T10:58:23.986Z,100748.06
2022-12-05T11:01:10.082Z,100744.34
2022-12-05T11:03:40.200Z,100740.47
2022-12-05T11:06:28.650Z,100735.09
2022-12-05T11:09:05.776Z,100738.44
2022-12-05T11:11:33.846Z,100732.53
2022-12-05T11:14:22.818Z,100722.31
2022-12-05T11:16:58.249Z,100721.69
2022-12-05T11:19:28.934Z,100726.78
2022-12-05T11:21:55.985Z,100722.31
2022-12-05T11:24:32.587Z,100727.03
2022-12-05T11:27:21.043Z,100739.59
2022-12-05T11:30:15.105Z,100733.44
2022-12-05T11:32:41.716Z,100728.88
2022-12-05T11:35:11.353Z,100730.00
2022-12-05T11:37:53.251Z,100732.22
2022-12-05T11:40:52.806Z,100721.81
2022-12-05T11:43:50.435Z,100730.09
2022-12-05T11:46:27.015Z,100731.44
2022-12-05T11:49:33.651Z,100728.97
2022-12-05T11:52:02.969Z,100731.44
2022-12-05T11:57:38.108Z,100720.47
2022-12-05T12:00:08.026Z,100717.84
2022-12-05T12:03:07.994Z,100724.66
2022-12-05T12:05:41.342Z,100723.88
2022-12-05T12:08:28.436Z,100718.31
2022-12-05T12:11:12.869Z,100717.44
2022-12-05T12:14:02.418Z,100708.00
2022-12-05T12:17:07.630Z,100716.25
2022-12-05T12:20:00.023Z,100718.09
2022-12-05T12:22:34.796Z,100717.50
2022-12-05T12:25:29.624Z,100718.09
2022-12-05T12:28:21.211Z,100707.84
2022-12-05T12:30:56.110Z,100711.56
2022-12-05T12:33:38.063Z,100709.69
2022-12-05T12:36:22.285Z,100707.44
2022-12-05T12:39:21.946Z,100708.44
2022-12-05T12:42:18.580Z,100712.34
2022-12-05T12:44:53.909Z,100714.81
2022-12-05T12:47:44.920Z,100703.91
2022-12-05T12:50:20.766Z,100703.09
2022-12-05T12:53:06.156Z,100701.88
2022-12-05T12:55:48.646Z,100704.56
2022-12-05T12:58:42.494Z,100701.91
2022-12-05T13:01:45.262Z,100699.63
2022-12-05T13:04:17.414Z,100696.94
2022-12-05T13:06:54.953Z,100706.81
2022-12-05T13:09:24.318Z,100702.88
2022-12-05T13:11:53.430Z,100703.50
2022-12-05T13:14:25.104Z,100700.25
2022-12-05T13:16:54.713Z,100693.69
2022-12-05T13:19:45.165Z,100703.53
2022-12-05T13:22:13.470Z,100704.34
2022-12-05T13:24:41.393Z,100710.50
2022-12-05T13:27:15.337Z,100707.63
2022-12-05T13:30:01.347Z,100705.38
2022-12-05T13:32:40.826Z,100701.47
2022-12-05T13:35:53.701Z,100703.72
2022-12-05T13:38:48.196Z,100705.38
2022-12-05T13:41:35.279Z,100707.63
2022-12-05T13:44:11.957Z,100714.63
2022-12-05T13:46:42.835Z,100718.09
2022-12-05T13:49:30.332Z,100716.47
2022-12-05T13:52:07.874Z,100718.94
2022-12-05T13:54:42.364Z,100720.78
2022-12-05T13:57:37.904Z,100720.38
2022-12-05T14:00:21.552Z,100727.16
2022-12-05T14:02:51.339Z,100727.78
2022-12-05T14:05:21.187Z,100723.66
2022-12-05T14:07:53.167Z,100722.00
2022-12-05T14:10:28.968Z,100726.31
2022-12-05T14:13:19.697Z,100723.63
2022-12-05T14:15:47.115Z,100723.63
2022-12-05T14:18:44.666Z,100729.22
2022-12-05T14:21:22.535Z,100735.34
2022-12-05T14:24:01.377Z,100727.34
2022-12-05T14:26:52.565Z,100736.59
2022-12-05T14:29:38.808Z,100731.88
2022-12-05T14:32:14.638Z,100739.88
2022-12-05T14:34:55.113Z,100735.75
2022-12-05T14:37:39.875Z,100740.06
2022-12-05T14:40:32.310Z,100738.22
2022-12-05T14:43:02.966Z,100743.75
2022-12-05T14:45:32.463Z,100751.97
2022-12-05T14:48:02.027Z,100751.78
2022-12-05T14:50:38.330Z,100747.47
2022-12-05T14:53:32.593Z,100741.31
2022-12-05T14:56:06.301Z,100741.31
2022-12-05T14:59:05.228Z,100746.25
2022-12-05T15:01:40.537Z,100746.25
2022-12-05T15:04:22.567Z,100749.50
2022-12-05T15:06:55.231Z,100745.81
2022-12-05T15:09:45.625Z,100750.34
2022-12-05T15:12:15.163Z,100750.34
2022-12-05T15:15:02.936Z,100747.88
2022-12-05T15:17:39.525Z,100754.25
2022-12-05T15:20:15.326Z,100760.38
2022-12-05T15:22:42.477Z,100765.53
2022-12-05T15:25:31.252Z,100762.41
2022-12-05T15:28:05.214Z,100762.66
2022-12-05T15:30:36.116Z,100760.81
2022-12-05T15:33:02.895Z,100759.97
2022-12-05T15:35:33.865Z,100753.19
2022-12-05T15:38:06.371Z,100748.25
2022-12-05T15:40:38.520Z,100755.47
2022-12-05T15:43:31.703Z,100754.03
2022-12-05T15:46:24.493Z,100758.09
2022-12-05T15:48:56.936Z,100754.00
2022-12-05T15:51:34.371Z,100758.28
2022-12-05T15:54:11.782Z,100759.56
2022-12-05T15:56:52.730Z,100759.97
2022-12-05T15:59:26.162Z,100762.81
2022-12-05T16:01:59.690Z,100759.34
2022-12-05T16:04:37.655Z,100765.91
2022-12-05T16:07:09.577Z,100767.97
2022-12-05T16:09:41.955Z,100762.00
2022-12-05T16:12:26.087Z,100771.25
2022-12-05T16:15:01.012Z,100760.53
2022-12-05T16:17:40.723Z,100766.53
2022-12-05T16:20:12.778Z,100770.41
2022-12-05T16:22:54.282Z,100767.78
2022-12-05T16:25:27.666Z,100769.00
2022-12-05T16:28:07.382Z,100778.66
2022-12-05T16:30:35.208Z,100776.97
2022-12-05T16:33:05.518Z,100779.50
2022-12-05T16:35:40.234Z,100781.13
2022-12-05T16:38:11.947Z,100776.41
2022-12-05T16:40:41.313Z,100777.81
2022-12-05T16:43:20.990Z,100771.69
2022-12-05T16:45:49.598Z,100773.34
2022-12-05T16:48:29.200Z,100764.31
2022-12-05T16:51:11.087Z,100769.63
2022-12-05T16:53:39.373Z,100777.00
2022-12-05T16:56:12.162Z,100774.72
2022-12-05T16:58:39.122Z,100780.28
2022-12-05T17:01:07.773Z,100782.34
2022-12-05T17:03:35.802Z,100788.09
2022-12-05T17:06:03.608Z,100787.50
2022-12-05T17:08:30.716Z,100790.59
2022-12-05T17:10:58.255Z,100794.69
2022-12-05T17:13:25.321Z,100807.00
2022-12-05T17:15:52.160Z,100797.56
2022-12-05T17:18:21.393Z,100792.88
2022-12-05T17:20:56.209Z,100796.13
2022-12-05T17:23:22.862Z,100797.97
2022-12-05T17:25:52.685Z,100802.09
2022-12-05T17:28:21.970Z,100795.91
2022-12-05T17:30:48.795Z,100794.69
2022-12-05T17:33:17.293Z,100799.00
2022-12-05T17:35:44.792Z,100792.22
2022-12-05T17:38:11.666Z,100799.63
2022-12-05T17:40:38.947Z,100800.03
2022-12-05T17:43:06.285Z,100797.97
2022-12-05T17:45:33.576Z,100799.03
2022-12-05T17:48:00.397Z,100810.13
2022-12-05T17:50:27.943Z,100810.72
2022-12-05T17:52:56.779Z,100808.25
2022-12-05T17:55:26.601Z,100800.34
2022-12-05T17:57:54.079Z,100809.88
2022-12-05T18:00:22.179Z,100804.97
2022-12-05T18:02:50.077Z,100808.66
2022-12-05T18:05:17.521Z,100810.34
2022-12-05T18:07:45.221Z,100815.47
2022-12-05T18:10:15.861Z,100802.69
2022-12-05T18:12:43.005Z,100807.84
2022-12-05T18:15:10.309Z,100809.03
2022-12-05T18:17:37.117Z,100807.81
2022-12-05T18:20:04.865Z,100815.34
2022-12-05T18:22:31.683Z,100818.19
2022-12-05T18:24:58.870Z,100817.97
2022-12-05T18:27:26.376Z,100805.66
2022-12-05T18:29:53.618Z,100810.91
2022-12-05T18:32:20.523Z,100810.94
2022-12-05T18:34:47.223Z,100811.53
2022-12-05T18:37:16.281Z,100813.41
2022-12-05T18:39:42.985Z,100810.69
2022-12-05T18:42:15.005Z,100816.88
2022-12-05T18:44:42.514Z,100808.88
2022-12-05T18:47:09.218Z,100808.69
2022-12-05T18:49:35.991Z,100807.59
2022-12-05T18:52:02.661Z,100808.06
2022-12-05T18:54:29.239Z,100802.09
2022-12-05T18:56:55.866Z,100803.69
2022-12-05T18:59:22.696Z,100802.88
2022-12-05T19:01:50.491Z,100807.03
2022-12-05T19:04:20.516Z,100800.88
2022-12-05T19:06:53.737Z,100806.22
2022-12-05T19:09:23.259Z,100800.84
2022-12-05T19:11:54.892Z,100798.59
2022-12-05T19:14:21.854Z,100800.22
2022-12-05T19:16:54.956Z,100799.22
2022-12-05T19:19:25.042Z,100807.84
2022-12-05T19:21:53.499Z,100800.03
2022-12-05T19:24:20.730Z,100806.19
2022-12-05T19:26:49.146Z,100810.06
2022-12-05T19:29:16.609Z,100808.25
2022-12-05T19:31:43.986Z,100816.44
2022-12-05T19:34:10.860Z,100806.38
2022-12-05T19:36:43.602Z,100809.00
2022-12-05T19:39:15.036Z,100816.59
2022-12-05T19:41:42.390Z,100807.78
2022-12-05T19:44:09.749Z,100809.88
2022-12-05T19:46:36.935Z,100814.41
2022-12-05T19:49:14.426Z,100818.34
2022-12-05T19:51:41.398Z,100816.88
2022-12-05T19:54:09.260Z,100826.72
2022-12-05T19:56:37.427Z,100827.78
2022-12-05T19:59:06.091Z,100825.03
2022-12-05T20:01:38.699Z,100819.56
2022-12-05T20:04:14.401Z,100824.50
2022-12-05T20:06:46.944Z,100814.03
2022-12-05T20:09:15.936Z,100815.47
2022-12-05T20:11:46.237Z,100817.09
2022-12-05T20:14:17.875Z,100820.38
2022-12-05T20:16:44.702Z,100811.06
2022-12-05T20:19:11.443Z,100817.88
2022-12-05T20:21:44.436Z,100810.94
2022-12-05T20:24:11.871Z,100819.31
2022-12-05T20:26:43.929Z,100824.47
2022-12-05T20:29:10.947Z,100818.88
2022-12-05T20:31:40.317Z,100827.50
2022-12-05T20:34:13.571Z,100818.53
2022-12-05T20:36:41.152Z,100826.09
2022-12-05T20:39:12.487Z,100826.13
2022-12-05T20:41:39.204Z,100823.03
2022-12-05T20:44:08.051Z,100829.84
2022-12-05T20:46:36.563Z,100829.22
2022-12-05T20:49:03.708Z,100823.88
2022-12-05T20:51:32.372Z,100832.06
2022-12-05T20:54:01.048Z,100830.00
2022-12-05T20:56:30.249Z,100833.50
2022-12-05T20:58:59.682Z,100829.81
2022-12-05T21:01:28.881Z,100834.69
2022-12-05T21:03:56.257Z,100823.63
2022-12-05T21:06:34.561Z,100829.00
2022-12-05T21:09:03.218Z,100830.06
2022-12-05T21:11:31.948Z,100832.91
2022-12-05T21:14:00.379Z,100834.97
2022-12-05T21:16:28.118Z,100831.88
2022-12-05T21:18:56.051Z,100832.88
2022-12-05T21:21:24.877Z,100821.72
2022-12-05T21:23:57.907Z,100818.03
2022-12-05T21:26:26.732Z,100818.72
2022-12-05T21:28:54.442Z,100823.06
2022-12-05T21:31:23.829Z,100817.28
2022-12-05T21:33:53.414Z,100818.25
2022-12-05T21:36:21.036Z,100821.34
2022-12-05T21:38:52.363Z,100822.81
2022-12-05T21:41:22.923Z,100812.56
2022-12-05T21:43:54.018Z,100816.00
2022-12-05T21:46:22.111Z,100816.88
2022-12-05T21:48:49.265Z,100814.41
2022-12-05T21:51:15.888Z,100815.81
2022-12-05T21:53:42.830Z,100820.16
2022-12-05T21:56:12.337Z,100812.09
2022-12-05T21:58:42.322Z,100816.44
2022-12-05T22:01:19.683Z,100817.72
2022-12-05T22:03:46.918Z,100817.28
2022-12-05T22:06:15.258Z,100823.88
2022-12-05T22:08:42.841Z,100821.19
2022-12-05T22:11:15.971Z,100821.59
2022-12-05T22:13:44.175Z,100820.97
2022-12-05T22:16:12.613Z,100820.41
2022-12-05T22:18:39.829Z,100819.94
2022-12-05T22:21:18.399Z,100824.41
2022-12-05T22:23:46.974Z,100818.69
2022-12-05T22:26:22.402Z,100819.75
2022-12-05T22:28:54.212Z,100817.66
2022-12-05T22:31:22.083Z,100817.25
2022-12-05T22:33:49.279Z,100814.09
2022-12-05T22:36:18.336Z,100811.69
2022-12-05T22:38:47.444Z,100820.94
2022-12-05T22:41:17.332Z,100813.16
2022-12-05T22:43:45.539Z,100810.88
2022-12-05T22:46:17.861Z,100801.22
2022-12-05T22:48:46.152Z,100807.06
2022-12-05T22:51:13.748Z,100807.84
2022-12-05T22:53:40.857Z,100802.72
2022-12-05T22:56:10.302Z,100810.50
2022-12-05T22:58:38.039Z,100804.56
2022-12-05T23:01:15.974Z,100803.34
2022-12-05T23:03:44.983Z,100804.19
2022-12-05T23:06:13.022Z,100797.75
2022-12-05T23:08:41.823Z,100791.34
2022-12-05T23:11:09.783Z,100799.75
2022-12-05T23:13:37.519Z,100795.06
2022-12-05T23:16:10.157Z,100800.66
2022-12-05T23:18:46.976Z,100791.59
2022-12-05T23:21:21.352Z,100795.53
2022-12-05T23:23:53.448Z,100792.63
2022-12-05T23:26:22.783Z,100789.97
2022-12-05T23:28:50.124Z,100794.25
2022-12-05T23:31:17.815Z,100789.16
2022-12-05T23:33:44.781Z,100787.69
2022-12-05T23:36:13.074Z,100787.72
2022-12-05T23:38:41.732Z,100781.97
2022-12-05T23:41:17.706Z,100790.59
2022-12-05T23:43:44.819Z,100781.66
2022-12-05T23:46:13.211Z,100783.47
2022-12-05T23:48:42.458Z,100782.34
2022-12-05T23:51:21.518Z,100780.94
2022-12-05T23:53:52.971Z,100774.78
2022-12-05T23:56:22.745Z,100771.72
2022-12-05T23:58:49.430Z,100780.97
